Huvudsida
METAR-TAF:

METAR-TAF

Flygplatser :

Aten-Elefthérios Venizélos internationella flygplats

Aten, Grekland

latitud: 37-56N, longitud: 023-56E, höjd: 94 m

Aktuellt väderrapport

Denna rapport gjordes för 24 minuter sedan, klockan 20:50 UTC
Vind 3 kt från nordväst
Temperatur 12°C
Fuktighet 82%
Tryck 1004 hPa
Sikt 10 km eller mer
Få moln på en höjd av 3000 ft

METAR: LGAV 142050Z 31003KT 9999 FEW030 12/09 Q1004 NOSIG

Tid: 23:14 (21:14 UTC)

Väderprognos

Denna rapport gjordes för 4 timmar och 14 minuter sedan, klockan 17:00 UTC
Prognos gäller från 14 kl. 18 UTC till 15 kl. 18 UTC
Vind 12 kt från nord/nordväst
Sikt 10 km eller mer
Få moln på en höjd av 2500 ft
Spridda moln på en höjd av 7000 ft
Blir
från 15 kl. 10 UTC till 15 kl. 12 UTC
Vind 10 kt från nordost
Blir
från 15 kl. 16 UTC till 15 kl. 18 UTC
Vind 5 kt varierande vindriktning

TAF: LGAV 141700Z 1418/1518 34012KT 9999 FEW025 SCT070 BECMG 1510/1512 04010KT BECMG 1516/1518 VRB05KT

Aktuella väderrapporter och prognoser från 4000 flygplatser (METAR- och TAF-rapporter).

De tillgängliga stationerna syns som gula och röda prickar på kartan.

För musen över prickarna för att se namnen på stationerna.

Klicka sedan för att få väderrapporter och prognoser.

För att ändra kartan: Klicka på de gröna knapparna med ett svart kors på för att zooma in; den gröna knappen med ett streck på för att zooma ut; eller på de gröna pilarna för angränsande kartor.


METAR-TAF: